Academy, Texas
Current Conditions -  °F | °C
As of 1:35 PM on Saturday 25 Oct 2014 (Local Time) from KTPL Reporting Station
Clear Clear  
Wind Chill: 28°   Ceiling: Unl
Heat Index: 28°   Visibility: 10mi
Dew Point: 16°   Wind: 5mph
Humidity: 48%   Direction: 220°SW
Pressure: 30.13"   Gusts: NA
Location:  30.9809°N, 97.3415°W
Report Text: KTPL 251835Z AUTO 22004KT 10SM CLR 28/16 A3013 RMK AO1
Loading
Personal Weather Stations






























Interactive Weather Map
Tropical Storm Tracking
New forecast layout! Learn more

10-Day Weather Forecast

Advertisements
Track Severe Weather on mobile